createdAt,value
2018-06-23T00:01:47.009Z,12.43
2018-06-23T00:04:16.448Z,12.07
2018-06-23T00:06:45.862Z,10.53
2018-06-23T00:09:15.372Z,13.87
2018-06-23T00:11:44.638Z,11.70
2018-06-23T00:14:16.612Z,10.07
2018-06-23T00:16:46.672Z,9.75
2018-06-23T00:19:16.220Z,7.65
2018-06-23T00:21:45.613Z,10.87
2018-06-23T00:24:14.935Z,12.20
2018-06-23T00:26:44.192Z,10.83
2018-06-23T00:29:13.305Z,11.08
2018-06-23T00:31:42.625Z,12.23
2018-06-23T00:34:11.957Z,12.07
2018-06-23T00:36:41.280Z,12.30
2018-06-23T00:39:10.593Z,9.27
2018-06-23T00:41:39.864Z,12.98
2018-06-23T00:44:09.329Z,12.13
2018-06-23T00:46:38.392Z,11.30
2018-06-23T00:49:07.645Z,10.03
2018-06-23T00:51:36.724Z,9.38
2018-06-23T00:54:06.165Z,13.03
2018-06-23T00:56:35.584Z,10.25
2018-06-23T00:59:15.923Z,12.40
2018-06-23T01:01:45.096Z,9.75
2018-06-23T01:04:14.513Z,11.15
2018-06-23T01:06:43.848Z,10.10
2018-06-23T01:09:13.145Z,10.68
2018-06-23T01:11:43.117Z,12.82
2018-06-23T01:14:12.794Z,16.55
2018-06-23T01:16:42.144Z,14.30
2018-06-23T01:19:11.534Z,10.60
2018-06-23T01:21:40.967Z,10.10
2018-06-23T01:24:10.234Z,13.22
2018-06-23T01:26:39.689Z,10.68
2018-06-23T01:29:09.075Z,8.63
2018-06-23T01:31:38.276Z,12.98
2018-06-23T01:34:07.452Z,12.88
2018-06-23T01:36:36.696Z,12.68
2018-06-23T01:39:08.832Z,14.58
2018-06-23T01:41:38.256Z,11.97
2018-06-23T01:44:07.731Z,13.43
2018-06-23T01:46:37.132Z,10.18
2018-06-23T01:49:06.556Z,12.75
2018-06-23T01:51:35.962Z,14.90
2018-06-23T01:54:05.334Z,8.83
2018-06-23T01:56:34.733Z,11.33
2018-06-23T01:59:04.003Z,14.13
2018-06-23T02:01:33.524Z,15.32
2018-06-23T02:04:02.802Z,10.63
2018-06-23T02:06:32.224Z,11.18
2018-06-23T02:09:01.652Z,10.15
2018-06-23T02:11:30.873Z,10.25
2018-06-23T02:14:05.400Z,8.20
2018-06-23T02:16:39.843Z,13.25
2018-06-23T02:19:14.135Z,14.10
2018-06-23T02:21:48.420Z,10.48
2018-06-23T02:24:22.744Z,14.47
2018-06-23T02:26:57.032Z,9.13
2018-06-23T02:29:31.442Z,12.28
2018-06-23T02:32:05.836Z,9.73
2018-06-23T02:34:40.119Z,9.88
2018-06-23T02:37:09.572Z,13.03
2018-06-23T02:39:38.940Z,9.20
2018-06-23T02:42:08.155Z,12.55
2018-06-23T02:44:37.509Z,13.15
2018-06-23T02:47:06.683Z,13.10
2018-06-23T02:49:36.108Z,12.60
2018-06-23T02:52:05.496Z,13.55
2018-06-23T02:54:34.985Z,14.50
2018-06-23T02:57:04.120Z,13.40
2018-06-23T02:59:33.614Z,9.28
2018-06-23T03:02:08.060Z,9.30
2018-06-23T03:04:37.319Z,12.58
2018-06-23T03:07:06.698Z,9.45
2018-06-23T03:09:35.945Z,8.75
2018-06-23T03:12:05.370Z,11.75
2018-06-23T03:14:34.575Z,11.20
2018-06-23T03:17:04.752Z,12.55
2018-06-23T03:19:33.912Z,11.05
2018-06-23T03:22:03.088Z,12.53
2018-06-23T03:24:32.673Z,8.03
2018-06-23T03:27:02.045Z,9.48
2018-06-23T03:29:31.488Z,13.35
2018-06-23T03:32:00.801Z,10.78
2018-06-23T03:34:29.975Z,14.43
2018-06-23T03:36:59.321Z,11.10
2018-06-23T03:39:28.720Z,12.68
2018-06-23T03:41:57.902Z,14.77
2018-06-23T03:44:27.135Z,9.83
2018-06-23T03:46:56.624Z,12.07
2018-06-23T03:49:25.853Z,12.15
2018-06-23T03:51:55.148Z,10.08
2018-06-23T03:54:24.394Z,8.83
2018-06-23T03:56:53.877Z,12.65
2018-06-23T03:59:23.127Z,11.13
2018-06-23T04:01:52.271Z,13.80
2018-06-23T04:04:21.707Z,10.82
2018-06-23T04:06:51.193Z,12.93
2018-06-23T04:09:21.011Z,13.08
2018-06-23T04:11:50.116Z,11.85
2018-06-23T04:14:19.361Z,11.70
2018-06-23T04:16:48.531Z,9.63
2018-06-23T04:19:17.841Z,10.72
2018-06-23T04:21:47.297Z,14.13
2018-06-23T04:24:16.773Z,10.68
2018-06-23T04:26:46.125Z,11.88
2018-06-23T04:29:15.315Z,12.10
2018-06-23T04:31:44.662Z,11.25
2018-06-23T04:34:13.924Z,11.63
2018-06-23T04:36:43.260Z,11.78
2018-06-23T04:39:12.577Z,13.95
2018-06-23T04:41:42.001Z,11.55
2018-06-23T04:44:11.416Z,13.38
2018-06-23T04:46:40.953Z,13.10
2018-06-23T04:49:10.210Z,15.33
2018-06-23T04:51:39.770Z,10.58
2018-06-23T04:54:09.120Z,12.13
2018-06-23T04:56:38.484Z,10.85
2018-06-23T04:59:07.659Z,9.63
2018-06-23T05:01:37.121Z,9.68
2018-06-23T05:04:06.308Z,10.23
2018-06-23T05:06:35.752Z,5.17
2018-06-23T05:09:06.465Z,14.33
2018-06-23T05:11:35.824Z,13.60
2018-06-23T05:14:05.077Z,9.73
2018-06-23T05:16:34.453Z,16.97
2018-06-23T05:19:03.696Z,12.63
2018-06-23T05:21:33.078Z,9.58
2018-06-23T05:24:02.548Z,13.25
2018-06-23T05:26:32.077Z,11.33
2018-06-23T05:29:01.496Z,8.10
2018-06-23T05:31:30.906Z,9.60
2018-06-23T05:34:00.072Z,11.90
2018-06-23T05:36:29.308Z,8.20
2018-06-23T05:38:58.385Z,7.43
2018-06-23T05:41:27.729Z,10.30
2018-06-23T05:43:56.901Z,8.70
2018-06-23T05:46:26.260Z,12.50
2018-06-23T05:48:55.532Z,7.67
2018-06-23T05:51:24.980Z,9.33
2018-06-23T05:53:53.944Z,9.90
2018-06-23T05:56:23.508Z,10.15
2018-06-23T05:58:52.600Z,11.88
2018-06-23T06:01:21.853Z,10.45
2018-06-23T06:03:51.117Z,15.15
2018-06-23T06:06:20.365Z,12.15
2018-06-23T06:08:49.512Z,12.80
2018-06-23T06:11:18.628Z,12.05
2018-06-23T06:13:47.845Z,12.03
2018-06-23T06:16:17.189Z,10.00
2018-06-23T06:18:47.328Z,10.97
2018-06-23T06:21:16.633Z,6.97
2018-06-23T06:23:46.091Z,12.25
2018-06-23T06:26:15.221Z,6.83
2018-06-23T06:28:44.568Z,14.13
2018-06-23T06:31:13.840Z,12.28
2018-06-23T06:33:43.178Z,10.95
2018-06-23T06:36:12.361Z,11.17
2018-06-23T06:38:41.617Z,10.23
2018-06-23T06:41:10.784Z,8.95
2018-06-23T06:43:40.132Z,8.13
2018-06-23T06:46:09.317Z,10.15
2018-06-23T06:48:38.553Z,12.43
2018-06-23T06:51:07.873Z,13.00
2018-06-23T06:53:37.189Z,13.53
2018-06-23T06:56:06.653Z,14.93
2018-06-23T06:58:36.019Z,12.73
2018-06-23T07:01:05.496Z,10.58
2018-06-23T07:03:34.843Z,9.08
2018-06-23T07:06:04.121Z,9.43
2018-06-23T07:08:33.474Z,12.75
2018-06-23T07:11:02.741Z,5.22
2018-06-23T07:13:32.544Z,10.80
2018-06-23T07:16:02.198Z,8.50
2018-06-23T07:18:31.553Z,12.37
2018-06-23T07:21:01.160Z,9.78
2018-06-23T07:23:30.679Z,14.30
2018-06-23T07:26:00.200Z,7.75
2018-06-23T07:28:29.352Z,10.83
2018-06-23T07:30:58.609Z,6.62
2018-06-23T07:33:27.894Z,9.98
2018-06-23T07:35:57.133Z,10.50
2018-06-23T07:38:26.303Z,10.08
2018-06-23T07:40:55.558Z,10.28
2018-06-23T07:43:24.720Z,9.28
2018-06-23T07:45:53.868Z,7.92
2018-06-23T07:48:23.048Z,10.43
2018-06-23T07:50:52.288Z,7.80
2018-06-23T07:53:21.461Z,10.13
2018-06-23T07:55:50.608Z,11.12
2018-06-23T07:58:19.889Z,6.27
2018-06-23T08:00:49.232Z,8.53
2018-06-23T08:03:18.404Z,8.20
2018-06-23T08:05:47.753Z,9.73
2018-06-23T08:08:17.285Z,7.15
2018-06-23T08:10:46.484Z,9.00
2018-06-23T08:13:15.899Z,11.88
2018-06-23T08:15:45.104Z,8.70
2018-06-23T08:18:14.503Z,9.95
2018-06-23T08:20:43.832Z,12.80
2018-06-23T08:23:12.990Z,8.85
2018-06-23T08:25:41.766Z,7.05
2018-06-23T08:28:11.271Z,8.75
2018-06-23T08:30:40.545Z,10.93
2018-06-23T08:33:09.897Z,8.83
2018-06-23T08:35:39.265Z,9.88
2018-06-23T08:38:08.523Z,9.30
2018-06-23T08:40:37.721Z,10.98
2018-06-23T08:43:07.141Z,8.93
2018-06-23T08:45:36.420Z,7.65
2018-06-23T08:48:06.129Z,7.47
2018-06-23T08:50:35.470Z,6.35
2018-06-23T08:53:05.040Z,8.47
2018-06-23T08:55:34.325Z,9.53
2018-06-23T08:58:03.982Z,8.10
2018-06-23T09:00:33.251Z,6.75
2018-06-23T09:03:02.586Z,8.05
2018-06-23T09:05:32.153Z,7.53
2018-06-23T09:08:01.506Z,9.63
2018-06-23T09:10:30.868Z,9.15
2018-06-23T09:13:00.135Z,7.15
2018-06-23T09:15:29.173Z,6.60
2018-06-23T09:17:58.327Z,7.17
2018-06-23T09:20:27.503Z,7.77
2018-06-23T09:22:56.645Z,8.33
2018-06-23T09:25:25.824Z,9.68
2018-06-23T09:27:54.972Z,7.07
2018-06-23T09:30:24.242Z,8.58
2018-06-23T09:32:53.702Z,8.43
2018-06-23T09:35:22.868Z,8.33
2018-06-23T09:37:52.288Z,8.20
2018-06-23T09:40:22.452Z,9.28
2018-06-23T09:42:51.623Z,7.47
2018-06-23T09:45:21.037Z,7.12
2018-06-23T09:47:50.148Z,7.20
2018-06-23T09:50:19.189Z,8.77
2018-06-23T09:52:48.394Z,6.75
2018-06-23T09:55:17.613Z,9.45
2018-06-23T09:57:46.682Z,7.03
2018-06-23T10:00:17.237Z,8.20
2018-06-23T10:02:47.813Z,6.65
2018-06-23T10:05:17.216Z,6.70
2018-06-23T10:07:46.375Z,5.87
2018-06-23T10:10:15.644Z,4.60
2018-06-23T10:12:44.916Z,5.30
2018-06-23T10:15:14.364Z,5.10
2018-06-23T10:17:43.532Z,6.40
2018-06-23T10:20:12.788Z,7.47
2018-06-23T10:22:41.949Z,5.58
2018-06-23T10:25:11.332Z,6.87
2018-06-23T10:27:40.588Z,3.80
2018-06-23T10:30:09.785Z,7.10
2018-06-23T10:32:39.199Z,5.90
2018-06-23T10:35:08.630Z,10.13
2018-06-23T10:37:38.169Z,5.97
2018-06-23T10:40:07.576Z,6.20
2018-06-23T10:42:36.801Z,4.58
2018-06-23T10:45:06.237Z,5.15
2018-06-23T10:47:35.821Z,7.17
2018-06-23T10:50:05.310Z,7.80
2018-06-23T10:52:34.804Z,5.80
2018-06-23T10:55:04.507Z,6.67
2018-06-23T10:57:34.089Z,12.90
2018-06-23T11:00:03.624Z,8.50
2018-06-23T11:02:33.077Z,7.60
2018-06-23T11:05:03.490Z,10.82
2018-06-23T11:07:32.900Z,7.53
2018-06-23T11:10:02.201Z,9.30
2018-06-23T11:12:32.342Z,6.47
2018-06-23T11:15:01.522Z,5.58
2018-06-23T11:17:31.077Z,11.83
2018-06-23T11:20:00.237Z,8.85
2018-06-23T11:22:29.728Z,6.10
2018-06-23T11:24:58.967Z,6.92
2018-06-23T11:27:28.424Z,6.20
2018-06-23T11:29:57.800Z,5.75
2018-06-23T11:32:27.140Z,6.53
2018-06-23T11:34:56.345Z,6.45
2018-06-23T11:37:25.740Z,5.87
2018-06-23T11:39:54.971Z,3.87
2018-06-23T11:42:24.304Z,5.60
2018-06-23T11:44:54.129Z,5.65
2018-06-23T11:47:23.297Z,4.35
2018-06-23T11:49:52.953Z,5.72
2018-06-23T11:52:22.281Z,5.65
2018-06-23T11:54:51.469Z,6.47
2018-06-23T11:57:20.655Z,4.80
2018-06-23T11:59:50.100Z,3.72
2018-06-23T12:02:19.305Z,9.80
2018-06-23T12:04:48.604Z,6.75
2018-06-23T12:07:17.702Z,4.53
2018-06-23T12:09:46.933Z,5.80
2018-06-23T12:12:16.110Z,5.25
2018-06-23T12:14:45.248Z,3.80
2018-06-23T12:17:14.564Z,4.40
2018-06-23T12:19:43.777Z,4.80
2018-06-23T12:22:13.202Z,6.55
2018-06-23T12:24:42.293Z,5.03
2018-06-23T12:27:11.568Z,5.13
2018-06-23T12:29:40.943Z,5.80
2018-06-23T12:32:10.093Z,6.63
2018-06-23T12:34:39.149Z,7.97
2018-06-23T12:37:08.553Z,5.80
2018-06-23T12:39:37.826Z,3.43
2018-06-23T12:42:07.156Z,5.20
2018-06-23T12:44:36.560Z,7.60
2018-06-23T12:47:06.061Z,7.22
2018-06-23T12:49:35.388Z,7.90
2018-06-23T12:52:04.757Z,4.47
2018-06-23T12:54:33.925Z,5.35
2018-06-23T12:57:03.389Z,4.90
2018-06-23T12:59:32.744Z,3.53
2018-06-23T13:02:02.476Z,8.33
2018-06-23T13:04:31.809Z,4.90
2018-06-23T13:07:01.130Z,6.20
2018-06-23T13:09:30.298Z,5.58
2018-06-23T13:11:59.536Z,5.92
2018-06-23T13:14:28.609Z,6.53
2018-06-23T13:16:57.872Z,6.00
2018-06-23T13:19:26.925Z,5.30
2018-06-23T13:21:56.076Z,5.60
2018-06-23T13:24:25.280Z,5.03
2018-06-23T13:26:54.484Z,5.15
2018-06-23T13:29:23.976Z,4.95
2018-06-23T13:31:53.220Z,3.20
2018-06-23T13:34:22.549Z,4.67
2018-06-23T13:36:51.920Z,6.12
2018-06-23T13:39:21.506Z,6.17
2018-06-23T13:41:50.537Z,6.10
2018-06-23T13:44:19.664Z,6.20
2018-06-23T13:46:48.976Z,3.98
2018-06-23T13:49:18.307Z,5.62
2018-06-23T13:51:47.581Z,3.62
2018-06-23T13:54:16.721Z,3.90
2018-06-23T13:56:45.990Z,3.52
2018-06-23T13:59:15.254Z,4.58
2018-06-23T14:01:44.420Z,3.83
2018-06-23T14:04:13.772Z,2.77
2018-06-23T14:06:43.052Z,3.87
2018-06-23T14:09:13.160Z,3.45
2018-06-23T14:11:42.384Z,5.60
2018-06-23T14:14:11.666Z,5.05
2018-06-23T14:16:40.796Z,4.27
2018-06-23T14:19:10.057Z,3.83
2018-06-23T14:21:39.226Z,3.15
2018-06-23T14:24:08.676Z,4.97
2018-06-23T14:26:38.073Z,3.65
2018-06-23T14:29:07.641Z,3.53
2018-06-23T14:31:37.265Z,3.83
2018-06-23T14:34:06.736Z,2.72
2018-06-23T14:36:36.092Z,4.97
2018-06-23T14:39:08.252Z,4.17
2018-06-23T14:41:37.387Z,3.33
2018-06-23T14:44:06.630Z,2.85
2018-06-23T14:46:36.172Z,4.70
2018-06-23T14:49:05.456Z,6.85
2018-06-23T14:51:34.917Z,4.90
2018-06-23T14:54:04.421Z,3.67
2018-06-23T14:56:33.876Z,3.05
2018-06-23T14:59:03.460Z,4.65
2018-06-23T15:01:33.073Z,4.50
2018-06-23T15:04:02.481Z,2.85
2018-06-23T15:06:31.891Z,4.30
2018-06-23T15:09:12.036Z,3.57
2018-06-23T15:11:52.240Z,2.62
2018-06-23T15:14:21.418Z,2.60
2018-06-23T15:16:50.756Z,2.58
2018-06-23T15:19:20.037Z,3.12
2018-06-23T15:21:49.392Z,3.67
2018-06-23T15:24:18.574Z,4.03
2018-06-23T15:26:48.009Z,3.92
2018-06-23T15:29:17.332Z,4.17
2018-06-23T15:31:46.652Z,5.50
2018-06-23T15:34:15.700Z,3.12
2018-06-23T15:36:44.969Z,3.72
2018-06-23T15:39:14.230Z,3.65
2018-06-23T15:41:43.376Z,4.00
2018-06-23T15:44:12.547Z,3.20
2018-06-23T15:46:41.804Z,3.20
2018-06-23T15:49:11.333Z,4.73
2018-06-23T15:51:40.841Z,5.40
2018-06-23T15:54:10.009Z,4.28
2018-06-23T15:56:39.244Z,3.27
2018-06-23T15:59:08.424Z,3.33
2018-06-23T16:01:37.936Z,3.40
2018-06-23T16:04:07.296Z,4.67
2018-06-23T16:06:36.995Z,3.52
2018-06-23T16:09:09.088Z,5.45
2018-06-23T16:11:38.318Z,3.08
2018-06-23T16:14:07.669Z,3.27
2018-06-23T16:16:37.081Z,3.37
2018-06-23T16:19:06.331Z,4.90
2018-06-23T16:21:35.737Z,3.60
2018-06-23T16:24:05.055Z,5.33
2018-06-23T16:26:34.248Z,5.93
2018-06-23T16:29:03.833Z,4.70
2018-06-23T16:31:33.430Z,3.40
2018-06-23T16:34:03.230Z,4.55
2018-06-23T16:36:32.425Z,3.37
2018-06-23T16:39:01.870Z,2.33
2018-06-23T16:41:31.176Z,3.55
2018-06-23T16:44:00.397Z,2.77
2018-06-23T16:46:29.553Z,1.90
2018-06-23T16:48:59.021Z,3.50
2018-06-23T16:51:28.432Z,2.12
2018-06-23T16:53:57.528Z,3.08
2018-06-23T16:56:26.597Z,2.65
2018-06-23T16:58:55.964Z,3.40
2018-06-23T17:01:25.225Z,2.83
2018-06-23T17:03:54.513Z,4.42
2018-06-23T17:06:23.871Z,4.40
2018-06-23T17:08:53.056Z,3.83
2018-06-23T17:11:22.246Z,3.52
2018-06-23T17:13:51.541Z,4.37
2018-06-23T17:16:20.945Z,4.95
2018-06-23T17:18:50.365Z,3.20
2018-06-23T17:21:19.579Z,3.80
2018-06-23T17:23:48.779Z,5.23
2018-06-23T17:26:17.988Z,5.80
2018-06-23T17:28:47.148Z,5.05
2018-06-23T17:31:16.517Z,2.08
2018-06-23T17:33:45.882Z,3.47
2018-06-23T17:36:15.505Z,2.60
2018-06-23T17:38:44.862Z,2.83
2018-06-23T17:41:14.274Z,3.65
2018-06-23T17:43:43.464Z,1.90
2018-06-23T17:46:12.976Z,2.90
2018-06-23T17:48:42.204Z,4.13
2018-06-23T17:51:11.508Z,2.00
2018-06-23T17:53:40.813Z,2.65
2018-06-23T17:56:10.057Z,4.27
2018-06-23T17:58:39.205Z,4.03
2018-06-23T18:01:08.468Z,2.67
2018-06-23T18:03:37.836Z,3.87
2018-06-23T18:06:07.089Z,3.87
2018-06-23T18:08:36.301Z,2.75
2018-06-23T18:11:05.510Z,3.35
2018-06-23T18:13:34.833Z,3.93
2018-06-23T18:16:04.150Z,2.60
2018-06-23T18:18:33.422Z,4.00
2018-06-23T18:21:02.770Z,4.63
2018-06-23T18:23:32.033Z,3.47
2018-06-23T18:26:01.389Z,2.72
2018-06-23T18:28:30.560Z,2.65
2018-06-23T18:30:59.873Z,3.22
2018-06-23T18:33:29.113Z,3.60
2018-06-23T18:35:58.303Z,3.33
2018-06-23T18:38:27.549Z,3.40
2018-06-23T18:40:56.865Z,2.12
2018-06-23T18:43:26.068Z,3.90
2018-06-23T18:45:55.565Z,4.90
2018-06-23T18:48:24.894Z,2.77
2018-06-23T18:50:54.069Z,4.22
2018-06-23T18:53:23.292Z,2.45
2018-06-23T18:55:52.484Z,3.20
2018-06-23T18:58:21.825Z,3.92
2018-06-23T19:00:51.100Z,2.98
2018-06-23T19:03:20.548Z,3.55
2018-06-23T19:05:49.928Z,4.15
2018-06-23T19:08:19.180Z,2.90
2018-06-23T19:10:48.354Z,4.70
2018-06-23T19:13:17.605Z,3.90
2018-06-23T19:15:46.659Z,6.03
2018-06-23T19:18:15.916Z,4.00
2018-06-23T19:20:45.223Z,3.55
2018-06-23T19:23:14.544Z,5.10
2018-06-23T19:25:43.758Z,4.17
2018-06-23T19:28:13.163Z,4.87
2018-06-23T19:30:42.440Z,5.15
2018-06-23T19:33:11.797Z,3.67
2018-06-23T19:35:41.048Z,5.05
2018-06-23T19:38:10.070Z,4.67
2018-06-23T19:40:39.524Z,5.80
2018-06-23T19:43:08.696Z,4.30
2018-06-23T19:45:38.754Z,3.65
2018-06-23T19:48:08.032Z,3.67
2018-06-23T19:50:37.083Z,4.67
2018-06-23T19:53:06.252Z,4.42
2018-06-23T19:55:35.609Z,4.70
2018-06-23T19:58:04.882Z,6.55
2018-06-23T20:00:34.116Z,5.20
2018-06-23T20:03:03.404Z,3.05
2018-06-23T20:05:32.755Z,4.87
2018-06-23T20:08:02.064Z,4.20
2018-06-23T20:10:31.484Z,3.50
2018-06-23T20:13:00.792Z,4.20
2018-06-23T20:15:30.208Z,2.93
2018-06-23T20:17:59.693Z,3.30
2018-06-23T20:20:28.928Z,4.67
2018-06-23T20:22:58.003Z,4.85
2018-06-23T20:25:27.226Z,5.03
2018-06-23T20:27:56.520Z,5.77
2018-06-23T20:30:25.616Z,5.08
2018-06-23T20:32:54.886Z,5.17
2018-06-23T20:35:24.212Z,4.67
2018-06-23T20:37:53.578Z,4.85
2018-06-23T20:40:23.020Z,6.00
2018-06-23T20:42:52.232Z,28.27
2018-06-23T20:45:21.644Z,12.13
2018-06-23T20:47:50.709Z,7.25
2018-06-23T20:50:20.041Z,6.10
2018-06-23T20:52:49.276Z,6.50
2018-06-23T20:55:18.448Z,4.87
2018-06-23T20:57:47.804Z,4.83
2018-06-23T21:00:17.073Z,4.87
2018-06-23T21:02:46.428Z,4.62
2018-06-23T21:05:15.596Z,5.00
2018-06-23T21:07:44.732Z,5.05
2018-06-23T21:10:25.232Z,5.58
2018-06-23T21:12:54.743Z,4.85
2018-06-23T21:15:24.129Z,4.33
2018-06-23T21:17:53.259Z,6.80
2018-06-23T21:20:22.425Z,4.45
2018-06-23T21:22:51.789Z,5.30
2018-06-23T21:25:20.997Z,4.50
2018-06-23T21:27:50.187Z,4.67
2018-06-23T21:30:19.348Z,5.73
2018-06-23T21:32:48.629Z,4.87
2018-06-23T21:35:18.003Z,3.98
2018-06-23T21:37:47.362Z,4.20
2018-06-23T21:40:16.534Z,4.03
2018-06-23T21:42:45.664Z,3.70
2018-06-23T21:45:15.089Z,5.30
2018-06-23T21:47:44.205Z,4.08
2018-06-23T21:50:13.404Z,3.63
2018-06-23T21:52:42.568Z,4.58
2018-06-23T21:55:11.692Z,4.00
2018-06-23T21:57:40.779Z,5.00
2018-06-23T22:00:19.739Z,5.33
2018-06-23T22:02:49.036Z,5.22
2018-06-23T22:05:18.272Z,4.12
2018-06-23T22:07:47.421Z,3.60
2018-06-23T22:10:16.708Z,4.20
2018-06-23T22:12:46.238Z,3.50
2018-06-23T22:15:15.741Z,4.30
2018-06-23T22:17:45.071Z,3.87
2018-06-23T22:20:14.358Z,3.50
2018-06-23T22:22:43.524Z,4.72
2018-06-23T22:25:12.940Z,5.30
2018-06-23T22:27:42.433Z,3.80
2018-06-23T22:30:11.780Z,3.47
2018-06-23T22:32:40.984Z,3.75
2018-06-23T22:35:10.493Z,4.78
2018-06-23T22:37:40.029Z,3.83
2018-06-23T22:40:09.769Z,4.12
2018-06-23T22:42:39.062Z,3.83
2018-06-23T22:45:08.556Z,6.22
2018-06-23T22:47:37.884Z,3.92
2018-06-23T22:50:10.793Z,4.78
2018-06-23T22:52:40.101Z,4.15
2018-06-23T22:55:10.315Z,3.75
2018-06-23T22:57:39.660Z,4.00
2018-06-23T23:00:11.932Z,4.05
2018-06-23T23:02:41.324Z,4.62
2018-06-23T23:05:10.856Z,4.80
2018-06-23T23:07:40.737Z,3.92
2018-06-23T23:10:10.938Z,4.42
2018-06-23T23:12:40.511Z,3.40
2018-06-23T23:15:09.875Z,4.35
2018-06-23T23:17:39.197Z,3.83
2018-06-23T23:20:08.585Z,4.20
2018-06-23T23:22:37.907Z,6.30
2018-06-23T23:25:07.096Z,5.50
2018-06-23T23:27:36.762Z,4.30
2018-06-23T23:30:07.373Z,3.90
2018-06-23T23:32:36.725Z,4.03
2018-06-23T23:35:05.908Z,3.42
2018-06-23T23:37:35.456Z,4.17
2018-06-23T23:40:05.081Z,4.25
2018-06-23T23:42:34.372Z,3.92
2018-06-23T23:45:03.657Z,4.58
2018-06-23T23:47:32.909Z,4.50
2018-06-23T23:50:02.282Z,3.40
2018-06-23T23:52:31.701Z,4.30
2018-06-23T23:55:01.273Z,3.80
2018-06-23T23:57:30.629Z,3.87
2018-06-23T23:59:59.822Z,3.70
